Time;durP1;ratioP1;P1;durP2;ratioP2;P2;SDS_P1;SDS_P2;PMS_P1;PMS_P2;Temp;Humidity;BMP_temperature;BMP_pressure;BME280_temperature;BME280_humidity;BME280_pressure;Samples;Min_cycle;Max_cycle;Signal;HPM_P1;HPM_P2
2023/09/12 00:00:56;;;;;;;39.95;36.05;;;20.60;99.90;;;;;;5036558;28;20586;-88
2023/09/12 00:03:23;;;;;;;40.97;36.78;;;20.60;99.90;;;;;;5036785;28;20051;-89
2023/09/12 00:05:56;;;;;;;41.72;37.58;;;20.60;99.90;;;;;;5036468;28;20041;-89
2023/09/12 00:08:22;;;;;;;42.65;38.55;;;20.60;99.90;;;;;;5019925;28;20688;-89
2023/09/12 00:10:58;;;;;;;42.45;38.45;;;20.60;99.90;;;;;;5036577;28;20041;-88
2023/09/12 00:13:23;;;;;;;44.42;39.92;;;20.70;99.90;;;;;;5036688;28;20041;-89
2023/09/12 00:15:49;;;;;;;42.05;37.95;;;20.70;99.90;;;;;;5020011;28;20041;-89
2023/09/12 00:18:14;;;;;;;40.00;36.20;;;20.70;99.90;;;;;;5036075;28;21310;-89
2023/09/12 00:20:40;;;;;;;42.53;38.22;;;20.70;99.90;;;;;;5036331;28;20044;-89
2023/09/12 00:23:05;;;;;;;41.67;37.83;;;20.70;99.90;;;;;;5036344;28;20040;-89
2023/09/12 00:25:31;;;;;;;42.47;38.47;;;20.70;99.90;;;;;;5035957;28;20044;-89
2023/09/12 00:27:57;;;;;;;41.72;37.83;;;20.70;99.90;;;;;;5019550;28;20047;-89
2023/09/12 00:30:22;;;;;;;41.95;37.85;;;20.70;99.90;;;;;;5020160;28;20406;-88
2023/09/12 00:32:48;;;;;;;42.88;38.67;;;20.70;99.90;;;;;;5036052;28;20041;-88
2023/09/12 00:35:13;;;;;;;43.20;38.95;;;20.70;99.90;;;;;;5036076;28;20033;-88
2023/09/12 00:37:39;;;;;;;45.05;40.55;;;20.70;99.90;;;;;;5019304;28;20350;-87
2023/09/12 00:40:05;;;;;;;46.40;41.83;;;20.60;99.90;;;;;;5019461;28;20073;-88
2023/09/12 00:42:31;;;;;;;44.42;40.13;;;20.60;99.90;;;;;;5036334;28;20043;-88
2023/09/12 00:44:56;;;;;;;44.95;40.40;;;20.60;99.90;;;;;;5019826;28;20415;-88
2023/09/12 00:47:23;;;;;;;48.28;43.50;;;20.60;99.90;;;;;;5020077;28;20045;-88
2023/09/12 00:49:50;;;;;;;44.08;39.78;;;20.60;99.90;;;;;;5035686;28;20041;-88
2023/09/12 00:52:17;;;;;;;42.50;38.35;;;20.60;99.90;;;;;;5035580;28;20052;-88
2023/09/12 00:54:42;;;;;;;46.60;41.90;;;20.60;99.90;;;;;;5035710;28;20128;-88
2023/09/12 00:57:08;;;;;;;43.17;38.85;;;20.70;99.90;;;;;;5034179;28;20133;-88
2023/09/12 00:59:34;;;;;;;46.85;42.03;;;20.70;99.90;;;;;;5019083;28;20408;-87
2023/09/12 01:02:00;;;;;;;49.60;44.60;;;20.70;99.90;;;;;;5035438;28;20102;-88
2023/09/12 01:04:27;;;;;;;45.55;41.22;;;20.70;99.90;;;;;;5035709;28;20514;-88
2023/09/12 01:06:52;;;;;;;42.65;38.20;;;20.60;99.90;;;;;;5034121;28;20448;-88
2023/09/12 01:09:18;;;;;;;42.80;38.70;;;20.60;99.90;;;;;;5034959;28;20036;-88
2023/09/12 01:11:44;;;;;;;42.60;38.45;;;20.60;99.90;;;;;;5018987;28;20048;-89
2023/09/12 01:14:10;;;;;;;44.47;40.15;;;20.60;99.90;;;;;;5035039;28;20048;-88
2023/09/12 01:16:35;;;;;;;41.50;37.20;;;20.60;99.90;;;;;;5035343;28;20036;-89
2023/09/12 01:19:02;;;;;;;41.75;37.53;;;20.60;99.90;;;;;;5018460;28;20045;-88
2023/09/12 01:22:03;;;;;;;47.15;39.88;;;20.50;99.90;;;;;;5035331;28;20045;-89
2023/09/12 01:24:53;;;;;;;38.17;34.40;;;20.50;99.90;;;;;;5035155;28;20128;-89
2023/09/12 01:27:45;;;;;;;42.30;38.28;;;20.50;99.90;;;;;;5018260;28;20519;-88
2023/09/12 01:30:10;;;;;;;42.13;38.27;;;20.40;99.90;;;;;;5014138;28;20107;-88
2023/09/12 01:32:38;;;;;;;40.70;36.90;;;20.40;99.90;;;;;;5018673;28;20511;-88
2023/09/12 01:35:04;;;;;;;34.97;31.70;;;20.40;99.90;;;;;;5034689;28;20041;-88
2023/09/12 01:37:31;;;;;;;35.72;32.15;;;20.40;99.90;;;;;;5018361;28;20102;-88
2023/09/12 01:39:57;;;;;;;40.45;36.55;;;20.40;99.90;;;;;;5034949;28;20040;-88
2023/09/12 01:42:23;;;;;;;41.40;37.50;;;20.30;99.90;;;;;;5034916;28;20037;-89
2023/09/12 01:44:56;;;;;;;46.65;42.10;;;20.30;99.90;;;;;;5035057;28;20128;-89
2023/09/12 01:47:23;;;;;;;42.92;38.67;;;20.30;99.90;;;;;;5017719;28;20049;-89
2023/09/12 01:49:53;;;;;;;40.70;36.83;;;20.30;99.90;;;;;;5034759;28;20041;-88
2023/09/12 01:52:19;;;;;;;43.67;39.53;;;20.30;99.90;;;;;;5034751;28;20591;-89
2023/09/12 01:54:47;;;;;;;42.83;38.83;;;20.30;99.90;;;;;;5034739;28;20032;-89
2023/09/12 01:57:14;;;;;;;47.10;42.33;;;20.30;99.90;;;;;;5034392;28;20047;-88
2023/09/12 01:59:40;;;;;;;69.20;42.33;;;20.30;99.90;;;;;;5034297;28;20565;-89
2023/09/12 02:02:07;;;;;;;67.28;39.63;;;20.30;99.90;;;;;;5017804;28;20033;-88
2023/09/12 02:04:32;;;;;;;93.22;33.65;;;20.20;99.90;;;;;;5018084;28;20048;-88
2023/09/12 02:06:58;;;;;;;36.30;32.70;;;20.10;99.90;;;;;;5017915;28;20037;-89
2023/09/12 02:09:24;;;;;;;37.50;33.92;;;20.10;99.90;;;;;;5033957;28;20487;-88
2023/09/12 02:11:51;;;;;;;38.42;34.92;;;20.00;99.90;;;;;;5034425;28;20036;-88
2023/09/12 02:14:20;;;;;;;33.95;30.85;;;20.00;99.90;;;;;;5034109;28;20041;-88
2023/09/12 02:16:45;;;;;;;34.85;31.58;;;20.00;99.90;;;;;;5033741;28;20083;-87
2023/09/12 02:19:11;;;;;;;36.03;32.67;;;20.00;99.90;;;;;;5017429;28;20443;-88
2023/09/12 02:21:37;;;;;;;39.72;35.95;;;19.90;99.90;;;;;;5033910;28;20112;-88
2023/09/12 02:24:02;;;;;;;40.13;36.55;;;20.00;99.90;;;;;;5017529;28;20044;-88
2023/09/12 02:26:28;;;;;;;43.55;37.33;;;20.00;99.90;;;;;;5033648;28;20072;-88
2023/09/12 02:28:53;;;;;;;40.88;36.92;;;20.00;99.90;;;;;;5017281;28;20040;-88
2023/09/12 02:31:19;;;;;;;41.10;37.30;;;19.90;99.90;;;;;;5034184;28;20095;-88
2023/09/12 02:33:45;;;;;;;40.20;36.38;;;19.90;99.90;;;;;;5033836;28;20572;-88
2023/09/12 02:36:10;;;;;;;43.05;39.05;;;19.90;99.90;;;;;;5017151;28;20048;-88
2023/09/12 02:38:36;;;;;;;44.00;39.75;;;19.90;99.90;;;;;;5033425;28;20036;-87
2023/09/12 02:41:02;;;;;;;40.05;36.15;;;19.90;99.90;;;;;;5034165;28;20033;-88
2023/09/12 02:43:28;;;;;;;42.72;38.97;;;19.90;99.90;;;;;;5033840;28;20045;-88
2023/09/12 02:45:54;;;;;;;42.53;38.72;;;20.00;99.90;;;;;;5033690;28;20552;-88
2023/09/12 02:48:19;;;;;;;38.45;34.90;;;19.90;99.90;;;;;;5033387;28;20489;-88
2023/09/12 02:50:45;;;;;;;36.92;33.53;;;19.90;99.90;;;;;;5034153;28;20124;-88
2023/09/12 02:53:11;;;;;;;31.90;29.00;;;19.90;99.90;;;;;;5034263;28;20044;-88
2023/09/12 02:55:40;;;;;;;30.17;27.35;;;19.80;99.90;;;;;;5034081;28;20526;-88
2023/09/12 02:58:06;;;;;;;27.15;24.55;;;19.80;99.90;;;;;;5017312;28;20044;-88
2023/09/12 03:00:31;;;;;;;28.50;25.65;;;19.70;99.90;;;;;;5017440;28;20120;-88
2023/09/12 03:02:57;;;;;;;28.42;25.55;;;19.70;99.90;;;;;;5033735;28;20462;-88
2023/09/12 03:05:23;;;;;;;27.65;24.85;;;19.70;99.90;;;;;;5033483;28;20111;-88
2023/09/12 03:07:48;;;;;;;28.55;25.60;;;19.70;99.90;;;;;;5033054;28;20063;-88
2023/09/12 03:10:14;;;;;;;28.63;25.58;;;19.70;99.90;;;;;;5033622;28;20516;-88
2023/09/12 03:12:40;;;;;;;31.25;27.80;;;19.60;99.90;;;;;;5033611;28;20478;-88
2023/09/12 03:15:06;;;;;;;84.30;29.58;;;19.60;99.90;;;;;;5033271;28;20041;-88
2023/09/12 03:17:32;;;;;;;55.40;29.63;;;19.60;99.90;;;;;;5033429;28;20033;-88
2023/09/12 03:20:01;;;;;;;30.33;27.42;;;19.50;99.90;;;;;;5017024;28;20558;-87
2023/09/12 03:22:26;;;;;;;28.25;25.58;;;19.50;99.90;;;;;;5033512;28;20040;-88
2023/09/12 03:24:52;;;;;;;35.58;31.83;;;19.50;99.90;;;;;;5017140;28;20389;-88
2023/09/12 03:27:17;;;;;;;172.27;39.50;;;19.50;99.90;;;;;;5032647;28;20041;-88
2023/09/12 03:29:47;;;;;;;126.32;42.22;;;19.50;99.90;;;;;;5019364;28;20056;-88
2023/09/12 03:32:12;;;;;;;101.53;37.55;;;19.50;99.90;;;;;;5037107;28;20044;-89
2023/09/12 03:34:38;;;;;;;107.82;37.53;;;19.50;99.90;;;;;;5020754;28;20033;-89
2023/09/12 03:37:03;;;;;;;169.55;40.47;;;19.50;99.90;;;;;;5020387;28;20040;-88
2023/09/12 03:39:29;;;;;;;151.38;37.40;;;19.60;99.90;;;;;;5017250;28;20041;-88
2023/09/12 03:41:55;;;;;;;149.90;45.63;;;19.50;99.90;;;;;;5030289;28;20068;-88
2023/09/12 03:44:20;;;;;;;64.93;35.90;;;19.50;99.90;;;;;;5020769;28;20036;-88
2023/09/12 03:46:46;;;;;;;97.93;41.15;;;19.50;99.90;;;;;;5036959;28;20044;-88
2023/09/12 03:49:11;;;;;;;99.30;40.05;;;19.50;99.90;;;;;;5036842;28;20090;-88
2023/09/12 03:51:37;;;;;;;105.80;39.70;;;19.50;99.90;;;;;;5037041;28;20041;-88
2023/09/12 03:54:03;;;;;;;130.32;41.35;;;19.40;99.90;;;;;;5036885;28;20120;-88
2023/09/12 03:56:29;;;;;;;72.30;40.33;;;19.40;99.90;;;;;;5037115;28;20084;-88
2023/09/12 03:58:57;;;;;;;74.90;40.80;;;19.40;99.90;;;;;;5036565;28;20083;-89
2023/09/12 04:01:23;;;;;;;113.18;45.40;;;19.30;99.90;;;;;;5020263;28;20127;-88
2023/09/12 04:03:48;;;;;;;72.40;40.30;;;19.30;99.90;;;;;;5036568;28;20076;-88
2023/09/12 04:06:14;;;;;;;137.02;44.65;;;19.20;99.90;;;;;;5036352;28;20040;-88
2023/09/12 04:08:40;;;;;;;104.80;43.90;;;19.20;99.90;;;;;;5036245;28;20041;-89
2023/09/12 04:11:05;;;;;;;110.93;41.40;;;19.20;99.90;;;;;;5036607;28;20518;-89
2023/09/12 04:13:31;;;;;;;188.00;46.33;;;19.20;99.90;;;;;;5036641;28;20048;-88
2023/09/12 04:15:56;;;;;;;145.88;45.38;;;19.20;99.90;;;;;;5019640;28;20043;-88
2023/09/12 04:18:22;;;;;;;87.53;40.65;;;19.10;99.90;;;;;;5036125;28;20191;-88
2023/09/12 04:20:47;;;;;;;72.78;41.40;;;19.10;99.90;;;;;;5036426;28;20037;-89
2023/09/12 04:23:13;;;;;;;45.65;41.10;;;19.10;99.90;;;;;;5020161;28;20048;-88
2023/09/12 04:25:42;;;;;;;52.35;42.47;;;19.20;99.90;;;;;;5036360;28;20492;-88
2023/09/12 04:28:08;;;;;;;42.95;39.17;;;19.10;99.90;;;;;;5052106;28;20040;-89
2023/09/12 04:30:35;;;;;;;36.90;23.55;;;19.20;99.90;;;;;;5019822;28;20047;-88
2023/09/12 04:33:00;;;;;;;61.22;42.45;;;19.20;99.90;;;;;;5034653;28;20053;-88
2023/09/12 04:35:26;;;;;;;43.70;39.35;;;19.20;99.90;;;;;;5017541;28;20407;-88
2023/09/12 04:37:52;;;;;;;54.50;43.83;;;19.20;99.90;;;;;;5033475;28;20068;-88
2023/09/12 04:40:17;;;;;;;47.05;42.22;;;19.20;99.90;;;;;;5033792;28;20040;-88
2023/09/12 04:42:43;;;;;;;84.40;42.63;;;19.30;99.90;;;;;;5034115;28;20741;-88
2023/09/12 04:45:09;;;;;;;153.63;46.20;;;19.30;99.90;;;;;;5034431;28;20454;-89
2023/09/12 04:47:34;;;;;;;118.97;47.03;;;19.30;99.90;;;;;;5034324;28;20049;-88
2023/09/12 04:50:01;;;;;;;74.05;41.05;;;19.20;99.90;;;;;;5035908;28;20102;-88
2023/09/12 04:52:27;;;;;;;104.82;43.70;;;19.20;99.90;;;;;;5035878;28;20171;-88
2023/09/12 04:54:52;;;;;;;54.38;39.85;;;19.20;99.90;;;;;;5033812;28;20120;-88
2023/09/12 04:57:18;;;;;;;48.95;42.22;;;19.20;99.90;;;;;;5034691;28;20066;-88
2023/09/12 04:59:44;;;;;;;43.97;39.33;;;19.20;99.90;;;;;;5035807;28;20041;-89
2023/09/12 05:02:09;;;;;;;44.40;39.58;;;19.20;99.90;;;;;;5035758;28;20428;-88
2023/09/12 05:04:35;;;;;;;49.17;39.75;;;19.20;99.90;;;;;;5035677;28;20029;-88
2023/09/12 05:07:00;;;;;;;103.35;44.67;;;19.20;99.90;;;;;;5035319;28;20120;-88
2023/09/12 05:09:26;;;;;;;47.67;40.10;;;19.30;99.90;;;;;;5034886;28;20037;-88
2023/09/12 05:11:52;;;;;;;90.85;41.40;;;19.20;99.90;;;;;;5033087;28;20029;-88
2023/09/12 05:14:17;;;;;;;43.83;39.35;;;19.20;99.90;;;;;;5032671;28;20867;-89
2023/09/12 05:16:43;;;;;;;48.38;38.13;;;19.30;99.90;;;;;;5016086;28;20556;-88
2023/09/12 05:19:08;;;;;;;45.40;40.72;;;19.20;99.90;;;;;;5032548;28;20036;-90
2023/09/12 05:21:34;;;;;;;47.75;40.95;;;19.30;99.90;;;;;;5032748;28;20037;-89
2023/09/12 05:23:59;;;;;;;45.65;40.90;;;19.30;99.90;;;;;;5032509;28;20071;-89
2023/09/12 05:26:25;;;;;;;45.08;40.47;;;19.30;99.90;;;;;;5016604;28;20393;-88
2023/09/12 05:28:51;;;;;;;43.20;39.00;;;19.30;99.90;;;;;;5034674;28;20047;-90
2023/09/12 05:31:16;;;;;;;45.22;40.30;;;19.20;99.90;;;;;;5018727;28;20071;-89
2023/09/12 05:33:42;;;;;;;44.20;39.65;;;19.20;99.90;;;;;;5034985;28;20052;-89
2023/09/12 05:36:07;;;;;;;43.40;38.95;;;19.20;99.90;;;;;;5018508;28;20407;-89
2023/09/12 05:38:33;;;;;;;43.00;38.58;;;19.20;99.90;;;;;;5034774;28;20114;-89
2023/09/12 05:40:58;;;;;;;59.38;41.10;;;19.20;99.90;;;;;;5035146;28;20041;-89
2023/09/12 05:43:24;;;;;;;44.83;39.97;;;19.20;99.90;;;;;;5034830;28;20569;-89
2023/09/12 05:45:50;;;;;;;47.80;39.78;;;19.20;99.90;;;;;;5035061;28;20052;-89
2023/09/12 05:48:15;;;;;;;45.92;40.85;;;19.20;99.90;;;;;;5017429;28;20515;-88
2023/09/12 05:50:41;;;;;;;53.25;44.00;;;19.20;99.90;;;;;;5034846;28;20466;-89
2023/09/12 05:53:08;;;;;;;44.97;40.17;;;19.20;99.90;;;;;;5017697;28;20041;-89
2023/09/12 05:55:33;;;;;;;47.25;42.17;;;19.20;99.90;;;;;;5034640;28;20032;-89
2023/09/12 05:57:59;;;;;;;44.65;39.95;;;19.20;99.90;;;;;;5033989;28;20041;-89
2023/09/12 06:00:25;;;;;;;51.45;44.55;;;19.20;99.90;;;;;;5018434;28;20048;-88
2023/09/12 06:02:51;;;;;;;44.40;39.83;;;19.20;99.90;;;;;;5034244;28;20080;-89
2023/09/12 06:05:16;;;;;;;45.35;40.67;;;19.20;99.90;;;;;;5034580;28;20053;-89
2023/09/12 06:07:42;;;;;;;46.72;41.83;;;19.30;99.90;;;;;;5033740;28;20414;-89
2023/09/12 06:10:08;;;;;;;46.00;41.38;;;19.30;99.90;;;;;;5034165;28;20102;-89
2023/09/12 06:12:36;;;;;;;49.67;41.20;;;19.30;99.90;;;;;;5017788;28;20124;-88
2023/09/12 06:15:03;;;;;;;52.60;43.95;;;19.30;99.90;;;;;;5018088;28;20067;-88
2023/09/12 06:17:29;;;;;;;50.03;44.70;;;19.30;99.90;;;;;;5033544;28;20090;-88
2023/09/12 06:19:55;;;;;;;48.25;43.08;;;19.30;99.90;;;;;;5033217;28;20048;-89
2023/09/12 06:22:22;;;;;;;50.47;44.10;;;19.30;99.90;;;;;;5031390;28;20048;-89
2023/09/12 06:24:49;;;;;;;53.90;46.17;;;19.30;99.90;;;;;;5031240;28;20053;-89
2023/09/12 06:27:18;;;;;;;51.42;45.65;;;19.30;99.90;;;;;;5031204;28;20112;-89
2023/09/12 06:29:45;;;;;;;49.80;44.13;;;19.30;99.90;;;;;;5030868;28;20029;-89
2023/09/12 06:32:11;;;;;;;52.95;46.88;;;19.30;99.90;;;;;;5033019;28;20381;-85
2023/09/12 06:34:37;;;;;;;53.65;45.88;;;19.30;99.90;;;;;;5048806;28;20044;-86
2023/09/12 06:37:02;;;;;;;56.42;47.78;;;19.20;99.90;;;;;;5022445;28;20053;-88
2023/09/12 06:39:28;;;;;;;54.47;46.70;;;19.30;99.90;;;;;;5033258;28;20044;-88
2023/09/12 06:41:53;;;;;;;55.35;49.30;;;19.20;99.90;;;;;;5035307;28;20060;-88
2023/09/12 06:44:19;;;;;;;56.78;49.20;;;19.20;99.90;;;;;;5035028;28;20048;-88
2023/09/12 06:46:45;;;;;;;40.42;22.42;;;19.20;99.90;;;;;;5023189;28;20550;-88
2023/09/12 06:49:10;;;;;;;53.10;47.35;;;19.20;99.90;;;;;;5018917;28;20037;-88
2023/09/12 06:51:36;;;;;;;59.13;49.83;;;19.20;99.90;;;;;;5040143;28;20036;-88
2023/09/12 06:54:02;;;;;;;54.47;47.00;;;19.20;99.90;;;;;;5039755;28;20037;-88
2023/09/12 06:56:28;;;;;;;53.70;47.78;;;19.20;99.90;;;;;;5023786;28;20135;-89
2023/09/12 06:58:55;;;;;;;59.58;50.90;;;19.30;99.90;;;;;;5033011;28;20116;-89
2023/09/12 07:01:20;;;;;;;60.95;51.10;;;19.30;99.90;;;;;;5030525;28;20447;-89
2023/09/12 07:03:46;;;;;;;61.13;52.45;;;19.30;99.90;;;;;;5038347;28;20583;-89
2023/09/12 07:06:12;;;;;;;63.05;51.90;;;19.30;99.90;;;;;;5020625;28;20037;-88
2023/09/12 07:08:38;;;;;;;60.90;50.75;;;19.40;99.90;;;;;;5017853;28;20432;-89
2023/09/12 07:11:06;;;;;;;61.42;51.72;;;19.40;99.90;;;;;;5035526;28;20044;-89
2023/09/12 07:13:32;;;;;;;57.22;50.25;;;19.50;99.90;;;;;;5037731;28;20045;-89
2023/09/12 07:15:58;;;;;;;53.28;47.30;;;19.50;99.90;;;;;;5037838;28;20037;-88
2023/09/12 07:18:24;;;;;;;53.72;46.92;;;19.50;99.90;;;;;;5020568;28;20448;-89
2023/09/12 07:21:00;;;;;;;52.17;46.47;;;19.50;99.90;;;;;;5017694;28;20435;-89
2023/09/12 07:23:26;;;;;;;55.25;47.25;;;19.50;99.90;;;;;;5034058;28;20056;-88
2023/09/12 07:25:53;;;;;;;53.08;44.67;;;19.50;99.90;;;;;;5017319;28;20041;-89
2023/09/12 07:28:19;;;;;;;56.78;46.85;;;19.50;99.90;;;;;;5036078;28;20040;-88
2023/09/12 07:30:48;;;;;;;53.63;45.20;;;19.50;99.90;;;;;;5037116;28;20094;-89
2023/09/12 07:33:14;;;;;;;53.83;45.20;;;19.50;99.90;;;;;;5037422;28;20033;-89
2023/09/12 07:35:39;;;;;;;54.28;45.67;;;19.50;99.90;;;;;;5020616;28;20033;-89
2023/09/12 07:38:05;;;;;;;51.20;44.20;;;19.50;99.90;;;;;;5032404;28;20029;-89
2023/09/12 07:40:30;;;;;;;52.03;45.45;;;19.50;99.90;;;;;;5037301;28;20086;-89
2023/09/12 07:42:56;;;;;;;52.35;45.00;;;19.50;99.90;;;;;;5020574;28;20036;-89
2023/09/12 07:45:22;;;;;;;51.95;42.80;;;19.50;99.90;;;;;;5037300;28;20056;-89
2023/09/12 07:47:48;;;;;;;52.47;44.58;;;19.50;99.90;;;;;;5020102;28;20506;-90
2023/09/12 07:50:14;;;;;;;38.70;23.25;;;19.50;99.90;;;;;;5036511;28;20044;-90
2023/09/12 07:52:39;;;;;;;48.70;43.28;;;19.50;99.90;;;;;;5037137;28;20099;-89
2023/09/12 07:55:07;;;;;;;48.10;42.60;;;19.50;99.90;;;;;;5036598;28;20045;-89
2023/09/12 07:57:34;;;;;;;47.53;41.88;;;19.60;99.90;;;;;;5036222;28;20037;-89
2023/09/12 08:00:00;;;;;;;48.95;42.92;;;19.60;99.90;;;;;;5036552;28;20041;-89
2023/09/12 08:02:26;;;;;;;50.72;44.47;;;19.70;99.90;;;;;;5020261;28;20037;-89
2023/09/12 08:04:53;;;;;;;50.28;43.53;;;19.60;99.90;;;;;;5036769;28;20127;-89
2023/09/12 08:07:19;;;;;;;51.25;45.75;;;19.70;99.90;;;;;;5019842;28;20041;-88
2023/09/12 08:09:54;;;;;;;56.38;46.55;;;19.70;99.90;;;;;;5036459;28;20404;-89
2023/09/12 08:12:21;;;;;;;55.45;47.60;;;19.80;99.90;;;;;;5036682;28;20044;-88
2023/09/12 08:14:47;;;;;;;53.05;46.88;;;19.80;99.90;;;;;;5020082;28;20037;-89
2023/09/12 08:17:13;;;;;;;49.25;43.85;;;19.90;99.90;;;;;;5036275;28;20056;-89
2023/09/12 08:19:39;;;;;;;51.70;44.80;;;20.00;99.90;;;;;;5019556;28;20033;-89
2023/09/12 08:22:07;;;;;;;50.42;44.28;;;20.00;99.90;;;;;;5020193;28;20044;-89
2023/09/12 08:24:33;;;;;;;47.40;42.15;;;20.00;99.90;;;;;;5036159;28;20037;-88
2023/09/12 08:26:59;;;;;;;50.53;43.75;;;20.00;99.90;;;;;;5036482;28;20522;-89
2023/09/12 08:29:25;;;;;;;47.67;42.30;;;20.00;99.90;;;;;;5035441;28;20033;-89
2023/09/12 08:31:50;;;;;;;47.35;42.20;;;20.10;99.90;;;;;;5019791;28;20410;-89
2023/09/12 08:34:16;;;;;;;48.60;41.75;;;20.10;99.90;;;;;;5019669;28;20099;-89
2023/09/12 08:36:42;;;;;;;49.05;43.45;;;20.10;99.90;;;;;;5036380;28;20041;-89
2023/09/12 08:39:12;;;;;;;44.22;39.53;;;20.20;99.90;;;;;;5035305;28;20049;-89
2023/09/12 08:41:38;;;;;;;46.13;41.22;;;20.20;99.90;;;;;;5036387;28;20059;-89
2023/09/12 08:44:05;;;;;;;46.90;41.53;;;20.20;99.90;;;;;;5035838;28;20041;-89
2023/09/12 08:46:31;;;;;;;46.38;41.38;;;20.20;99.90;;;;;;5019418;28;20071;-89
2023/09/12 08:48:58;;;;;;;40.33;36.22;;;20.30;99.90;;;;;;5015605;28;20049;-89
2023/09/12 08:51:23;;;;;;;38.10;33.97;;;20.30;99.90;;;;;;5036027;28;20530;-89
2023/09/12 08:53:50;;;;;;;38.05;34.10;;;20.20;99.90;;;;;;5035689;28;20041;-89
2023/09/12 08:56:18;;;;;;;40.58;36.08;;;20.30;99.90;;;;;;5022758;28;20086;-89
2023/09/12 08:58:44;;;;;;;35.08;31.58;;;20.30;99.90;;;;;;5026498;28;20504;-89
2023/09/12 09:01:15;;;;;;;32.75;29.25;;;20.30;99.90;;;;;;5024253;28;20036;-89
2023/09/12 09:03:43;;;;;;;35.38;31.73;;;20.30;99.90;;;;;;5035715;28;20044;-89
2023/09/12 09:06:10;;;;;;;38.63;34.53;;;20.40;99.90;;;;;;5035272;28;20040;-89
2023/09/12 09:08:37;;;;;;;38.25;34.25;;;20.40;99.90;;;;;;5034933;28;20040;-88
2023/09/12 09:11:05;;;;;;;38.00;34.00;;;20.40;99.90;;;;;;5035104;28;20045;-89
2023/09/12 09:13:31;;;;;;;36.47;32.75;;;20.40;99.90;;;;;;5018778;28;20087;-90
2023/09/12 09:16:17;;;;;;;38.33;34.45;;;20.30;99.90;;;;;;5042566;28;20385;-89
2023/09/12 09:18:59;;;;;;;34.70;31.15;;;20.40;99.90;;;;;;5025655;28;20036;-89
2023/09/12 09:21:26;;;;;;;;;;;20.40;99.90;;;;;;5042891;28;20542;-89
2023/09/12 09:23:54;;;;;;;36.42;32.33;;;20.40;99.90;;;;;;5025904;28;19963;-89
2023/09/12 09:26:21;;;;;;;36.33;32.47;;;20.50;99.90;;;;;;5024858;28;20037;-89
2023/09/12 09:29:06;;;;;;;36.33;32.63;;;20.50;99.90;;;;;;5041919;28;20090;-89
2023/09/12 09:31:32;;;;;;;36.95;33.22;;;20.60;99.90;;;;;;5041840;28;20037;-89
2023/09/12 09:33:59;;;;;;;37.55;33.75;;;20.60;99.90;;;;;;5025467;28;20043;-89
2023/09/12 09:36:25;;;;;;;39.67;35.67;;;20.70;99.90;;;;;;5041999;28;20048;-89
2023/09/12 09:38:51;;;;;;;37.95;34.15;;;20.70;99.90;;;;;;5041313;28;20111;-89
2023/09/12 09:41:21;;;;;;;35.97;32.38;;;20.80;99.90;;;;;;5025493;28;20032;-89
2023/09/12 09:43:50;;;;;;;36.08;32.45;;;20.80;99.90;;;;;;5025760;28;20626;-89
2023/09/12 09:46:16;;;;;;;37.05;33.15;;;20.90;99.90;;;;;;5023712;28;20044;-89
2023/09/12 09:48:49;;;;;;;36.28;32.60;;;20.90;99.90;;;;;;5024687;28;20503;-89
2023/09/12 09:51:14;;;;;;;;;;;21.00;99.90;;;;;;5040996;28;20433;-89
2023/09/12 09:53:40;;;;;;;38.00;34.00;;;21.00;99.90;;;;;;5041373;28;20055;-89
2023/09/12 09:56:14;;;;;;;38.60;34.65;;;21.00;99.90;;;;;;5021738;28;20037;-89
2023/09/12 09:58:55;;;;;;;38.30;34.33;;;21.00;99.90;;;;;;5034945;28;20033;-89
2023/09/12 10:01:29;;;;;;;39.00;34.92;;;21.10;99.90;;;;;;5036086;28;20032;-89
2023/09/12 10:03:59;;;;;;;36.53;32.83;;;21.10;99.90;;;;;;5021640;28;20056;-89
2023/09/12 10:06:26;;;;;;;38.42;34.60;;;21.20;99.90;;;;;;5024883;28;20040;-89
2023/09/12 10:08:53;;;;;;;39.17;35.30;;;21.30;99.90;;;;;;5023933;28;20519;-89
2023/09/12 10:11:23;;;;;;;38.17;34.38;;;21.40;99.90;;;;;;5024466;28;20036;-89
2023/09/12 10:13:53;;;;;;;39.53;35.73;;;21.50;99.90;;;;;;5024734;28;20500;-89
2023/09/12 10:16:23;;;;;;;38.50;34.70;;;21.60;99.90;;;;;;5041167;28;20045;-90
2023/09/12 10:19:07;;;;;;;36.08;32.58;;;21.80;99.90;;;;;;5018917;28;20041;-90
2023/09/12 10:21:34;;;;;;;35.75;32.10;;;22.00;99.90;;;;;;5044284;28;20041;-90
2023/09/12 10:24:03;;;;;;;35.67;32.05;;;22.10;99.90;;;;;;5034319;28;20400;-89
2023/09/12 10:26:31;;;;;;;37.17;33.47;;;22.20;99.90;;;;;;5017702;28;20067;-89
2023/09/12 10:28:59;;;;;;;37.05;33.20;;;22.40;99.90;;;;;;5033469;28;20123;-90
2023/09/12 10:31:26;;;;;;;37.03;33.30;;;22.50;99.90;;;;;;5033531;28;20071;-89
2023/09/12 10:33:53;;;;;;;35.00;31.50;;;22.50;99.90;;;;;;5033648;28;20048;-90
2023/09/12 10:36:20;;;;;;;35.22;31.73;;;22.60;99.90;;;;;;5034092;28;20404;-90
2023/09/12 10:38:48;;;;;;;34.25;30.85;;;22.60;99.90;;;;;;5033282;28;20087;-90
2023/09/12 10:41:14;;;;;;;33.08;29.58;;;22.60;99.90;;;;;;5033838;28;20100;-90
2023/09/12 10:43:42;;;;;;;33.72;30.40;;;22.70;99.90;;;;;;5026983;28;20044;-90
2023/09/12 10:46:08;;;;;;;33.90;30.40;;;22.70;99.90;;;;;;5024363;28;20033;-90
2023/09/12 10:48:39;;;;;;;31.88;28.73;;;22.80;99.90;;;;;;5038480;28;20040;-90
2023/09/12 10:51:07;;;;;;;33.88;30.48;;;22.80;99.90;;;;;;5025648;28;20243;-90
2023/09/12 10:53:33;;;;;;;32.75;29.45;;;22.90;99.90;;;;;;5038240;28;20056;-90
2023/09/12 10:56:08;;;;;;;32.17;28.98;;;23.00;99.90;;;;;;5043691;28;20553;-90
2023/09/12 10:59:15;;;;;;;35.83;29.02;;;23.10;99.90;;;;;;5041548;28;20392;-90
2023/09/12 11:01:45;;;;;;;31.88;28.67;;;23.20;99.90;;;;;;5040032;28;20054;-90
2023/09/12 11:04:20;;;;;;;33.50;30.08;;;23.30;99.90;;;;;;5017160;28;20045;-90
2023/09/12 11:06:50;;;;;;;33.40;30.08;;;23.40;99.90;;;;;;5033530;28;20041;-90
2023/09/12 11:09:23;;;;;;;32.25;29.15;;;23.40;99.90;;;;;;5032999;28;20083;-90
2023/09/12 11:11:54;;;;;;;30.52;27.52;;;23.50;99.90;;;;;;5033234;28;20056;-90
2023/09/12 11:14:20;;;;;;;33.63;29.98;;;23.60;99.90;;;;;;5033636;28;20512;-90
2023/09/12 11:17:07;;;;;;;32.80;29.42;;;23.60;99.90;;;;;;5037113;28;20037;-90
2023/09/12 11:19:52;;;;;;;30.15;27.05;;;23.60;99.90;;;;;;5037346;28;20083;-90
2023/09/12 11:22:39;;;;;;;32.17;28.98;;;23.60;99.90;;;;;;5024601;28;20040;-90
2023/09/12 11:25:25;;;;;;;28.45;25.52;;;23.80;99.90;;;;;;5041704;28;20109;-90
2023/09/12 11:27:51;;;;;;;30.65;27.52;;;23.90;99.90;;;;;;5037747;28;20084;-90
2023/09/12 11:30:18;;;;;;;28.65;25.73;;;23.90;99.90;;;;;;5041055;28;20072;-90
2023/09/12 11:32:50;;;;;;;26.17;23.30;;;24.00;99.90;;;;;;5041225;28;20060;-90
2023/09/12 11:35:16;;;;;;;25.88;23.17;;;24.00;99.90;;;;;;5039867;28;20633;-90
2023/09/12 11:37:59;;;;;;;25.40;22.70;;;24.10;99.90;;;;;;5024701;28;20037;-90
2023/09/12 11:40:33;;;;;;;24.10;21.50;;;24.00;99.90;;;;;;5024288;28;20029;-90
2023/09/12 11:42:58;;;;;;;24.05;21.23;;;24.10;99.90;;;;;;5039894;28;20079;-90
2023/09/12 11:45:25;;;;;;;23.95;21.45;;;24.10;99.90;;;;;;5024892;28;20044;-89
2023/09/12 11:47:51;;;;;;;26.40;23.65;;;24.10;99.90;;;;;;5023871;28;20041;-90
2023/09/12 11:50:29;;;;;;;26.55;23.83;;;24.00;99.90;;;;;;5042649;28;20186;-90
2023/09/12 11:53:08;;;;;;;25.70;23.10;;;23.90;99.90;;;;;;5025875;28;20508;-90
2023/09/12 11:55:45;;;;;;;25.65;23.15;;;23.90;99.90;;;;;;5044391;28;20063;-90
2023/09/12 11:58:14;;;;;;;26.02;23.25;;;23.90;99.90;;;;;;5040488;28;20039;-90
2023/09/12 12:00:52;;;;;;;26.63;23.92;;;23.90;99.90;;;;;;5036972;28;20037;-90
2023/09/12 12:03:20;;;;;;;26.27;23.67;;;24.00;99.90;;;;;;5036435;28;20111;-90
2023/09/12 12:05:46;;;;;;;26.27;23.58;;;24.20;99.90;;;;;;5025014;28;20076;-90
2023/09/12 12:08:13;;;;;;;24.05;21.48;;;24.30;99.90;;;;;;5018544;28;20048;-90
2023/09/12 12:10:39;;;;;;;26.30;22.98;;;24.40;99.90;;;;;;5030388;28;20080;-90
2023/09/12 12:13:06;;;;;;;23.98;21.50;;;24.70;99.90;;;;;;5015904;28;20040;-91
2023/09/12 12:15:32;;;;;;;24.80;22.13;;;24.80;99.90;;;;;;5017162;28;20037;-90
2023/09/12 12:17:58;;;;;;;24.48;21.75;;;24.90;99.90;;;;;;5033031;28;20415;-91
2023/09/12 12:20:24;;;;;;;21.58;19.38;;;24.90;99.90;;;;;;5033114;28;20037;-91
2023/09/12 12:22:52;;;;;;;23.67;21.17;;;25.00;99.90;;;;;;5017387;28;20040;-91
2023/09/12 12:25:18;;;;;;;24.30;21.90;;;25.00;99.90;;;;;;5033526;28;20083;-90
2023/09/12 12:27:44;;;;;;;23.23;20.95;;;25.00;99.90;;;;;;5016199;28;20443;-91
2023/09/12 12:30:12;;;;;;;23.90;21.40;;;25.00;99.90;;;;;;5016865;28;20052;-91